sensor_id;sensor_type;location;lat;lon;timestamp;temperature;humidity
49224;DHT22;35050;51.316;5.994;2023-10-09T00:01:43;15.90;99.90
49224;DHT22;35050;51.316;5.994;2023-10-09T00:04:12;15.90;99.90
49224;DHT22;35050;51.316;5.994;2023-10-09T00:06:40;15.70;99.90
49224;DHT22;35050;51.316;5.994;2023-10-09T00:09:09;15.80;99.90
49224;DHT22;35050;51.316;5.994;2023-10-09T00:11:56;15.80;99.90
49224;DHT22;35050;51.316;5.994;2023-10-09T00:14:31;15.70;99.90
49224;DHT22;35050;51.316;5.994;2023-10-09T00:17:04;15.70;99.90
49224;DHT22;35050;51.316;5.994;2023-10-09T00:19:35;15.70;99.90
49224;DHT22;35050;51.316;5.994;2023-10-09T00:22:02;15.70;99.90
49224;DHT22;35050;51.316;5.994;2023-10-09T00:24:48;15.60;99.90
49224;DHT22;35050;51.316;5.994;2023-10-09T00:27:15;15.70;99.90
49224;DHT22;35050;51.316;5.994;2023-10-09T00:29:41;15.70;99.90
49224;DHT22;35050;51.316;5.994;2023-10-09T00:32:15;15.60;99.90
49224;DHT22;35050;51.316;5.994;2023-10-09T00:34:58;15.70;99.90
49224;DHT22;35050;51.316;5.994;2023-10-09T00:37:44;15.60;99.90
49224;DHT22;35050;51.316;5.994;2023-10-09T00:40:10;15.60;99.90
49224;DHT22;35050;51.316;5.994;2023-10-09T00:42:45;15.60;99.90
49224;DHT22;35050;51.316;5.994;2023-10-09T00:45:12;15.70;99.90
49224;DHT22;35050;51.316;5.994;2023-10-09T00:47:45;15.70;99.90
49224;DHT22;35050;51.316;5.994;2023-10-09T00:50:13;15.80;99.90
49224;DHT22;35050;51.316;5.994;2023-10-09T00:52:44;15.80;99.90
49224;DHT22;35050;51.316;5.994;2023-10-09T00:55:21;15.90;99.90
49224;DHT22;35050;51.316;5.994;2023-10-09T00:57:51;15.80;99.90
49224;DHT22;35050;51.316;5.994;2023-10-09T01:00:26;15.80;99.90
49224;DHT22;35050;51.316;5.994;2023-10-09T01:03:12;15.80;99.90
49224;DHT22;35050;51.316;5.994;2023-10-09T01:05:54;15.80;99.90
49224;DHT22;35050;51.316;5.994;2023-10-09T01:08:41;15.90;99.90
49224;DHT22;35050;51.316;5.994;2023-10-09T01:11:13;15.80;99.90
49224;DHT22;35050;51.316;5.994;2023-10-09T01:13:48;15.90;99.90
49224;DHT22;35050;51.316;5.994;2023-10-09T01:16:14;15.90;99.90
49224;DHT22;35050;51.316;5.994;2023-10-09T01:18:47;15.90;99.90
49224;DHT22;35050;51.316;5.994;2023-10-09T01:21:20;15.80;99.90
49224;DHT22;35050;51.316;5.994;2023-10-09T01:23:54;15.80;99.90
49224;DHT22;35050;51.316;5.994;2023-10-09T01:26:39;15.90;99.90
49224;DHT22;35050;51.316;5.994;2023-10-09T01:29:06;15.80;99.90
49224;DHT22;35050;51.316;5.994;2023-10-09T01:31:37;15.80;99.90
49224;DHT22;35050;51.316;5.994;2023-10-09T01:34:09;15.80;99.90
49224;DHT22;35050;51.316;5.994;2023-10-09T01:36:41;15.80;99.90
49224;DHT22;35050;51.316;5.994;2023-10-09T01:39:07;15.90;99.90
49224;DHT22;35050;51.316;5.994;2023-10-09T01:41:51;15.90;99.90
49224;DHT22;35050;51.316;5.994;2023-10-09T01:44:32;15.90;99.90
49224;DHT22;35050;51.316;5.994;2023-10-09T01:47:02;15.90;99.90
49224;DHT22;35050;51.316;5.994;2023-10-09T01:49:36;15.90;99.90
49224;DHT22;35050;51.316;5.994;2023-10-09T01:52:07;15.90;99.90
49224;DHT22;35050;51.316;5.994;2023-10-09T01:54:36;15.90;99.90
49224;DHT22;35050;51.316;5.994;2023-10-09T01:57:06;15.90;99.90
49224;DHT22;35050;51.316;5.994;2023-10-09T01:59:36;16.00;99.90
49224;DHT22;35050;51.316;5.994;2023-10-09T02:02:12;16.00;99.90
49224;DHT22;35050;51.316;5.994;2023-10-09T02:05:04;16.00;99.90
49224;DHT22;35050;51.316;5.994;2023-10-09T02:07:50;16.00;99.90
49224;DHT22;35050;51.316;5.994;2023-10-09T02:10:21;15.90;99.90
49224;DHT22;35050;51.316;5.994;2023-10-09T02:12:50;15.90;99.90
49224;DHT22;35050;51.316;5.994;2023-10-09T02:15:19;15.90;99.90
49224;DHT22;35050;51.316;5.994;2023-10-09T02:18:05;15.90;99.90
49224;DHT22;35050;51.316;5.994;2023-10-09T02:20:47;16.00;99.90
49224;DHT22;35050;51.316;5.994;2023-10-09T02:23:20;15.90;99.90
49224;DHT22;35050;51.316;5.994;2023-10-09T02:25:55;15.90;99.90
49224;DHT22;35050;51.316;5.994;2023-10-09T02:28:21;15.90;99.90
49224;DHT22;35050;51.316;5.994;2023-10-09T02:30:47;16.00;99.90
49224;DHT22;35050;51.316;5.994;2023-10-09T02:33:16;16.00;99.90
49224;DHT22;35050;51.316;5.994;2023-10-09T02:35:59;16.00;99.90
49224;DHT22;35050;51.316;5.994;2023-10-09T02:38:30;15.90;99.90
49224;DHT22;35050;51.316;5.994;2023-10-09T02:40:59;16.00;99.90
49224;DHT22;35050;51.316;5.994;2023-10-09T02:43:46;15.90;99.90
49224;DHT22;35050;51.316;5.994;2023-10-09T02:46:13;16.00;99.90
49224;DHT22;35050;51.316;5.994;2023-10-09T02:48:49;16.00;99.90
49224;DHT22;35050;51.316;5.994;2023-10-09T02:51:27;16.00;99.90
49224;DHT22;35050;51.316;5.994;2023-10-09T02:56:20;16.00;99.90
49224;DHT22;35050;51.316;5.994;2023-10-09T02:59:05;15.90;99.90
49224;DHT22;35050;51.316;5.994;2023-10-09T03:01:40;16.00;99.90
49224;DHT22;35050;51.316;5.994;2023-10-09T03:04:07;15.90;99.90
49224;DHT22;35050;51.316;5.994;2023-10-09T03:06:36;15.90;99.90
49224;DHT22;35050;51.316;5.994;2023-10-09T03:09:11;15.90;99.90
49224;DHT22;35050;51.316;5.994;2023-10-09T03:11:47;16.00;99.90
49224;DHT22;35050;51.316;5.994;2023-10-09T03:14:19;16.00;99.90
49224;DHT22;35050;51.316;5.994;2023-10-09T03:16:46;16.00;99.90
49224;DHT22;35050;51.316;5.994;2023-10-09T03:19:14;16.00;99.90
49224;DHT22;35050;51.316;5.994;2023-10-09T03:21:40;16.00;99.90
49224;DHT22;35050;51.316;5.994;2023-10-09T03:24:07;16.00;99.90
49224;DHT22;35050;51.316;5.994;2023-10-09T03:26:34;16.00;99.90
49224;DHT22;35050;51.316;5.994;2023-10-09T03:29:00;16.00;99.90
49224;DHT22;35050;51.316;5.994;2023-10-09T03:31:32;16.00;99.90
49224;DHT22;35050;51.316;5.994;2023-10-09T03:33:59;16.00;99.90
49224;DHT22;35050;51.316;5.994;2023-10-09T03:36:25;16.00;99.90
49224;DHT22;35050;51.316;5.994;2023-10-09T03:38:54;15.90;99.90
49224;DHT22;35050;51.316;5.994;2023-10-09T03:41:21;15.90;99.90
49224;DHT22;35050;51.316;5.994;2023-10-09T03:43:47;15.90;99.90
49224;DHT22;35050;51.316;5.994;2023-10-09T03:46:13;15.90;99.90
49224;DHT22;35050;51.316;5.994;2023-10-09T03:48:52;16.00;99.90
49224;DHT22;35050;51.316;5.994;2023-10-09T03:51:23;15.90;99.90
49224;DHT22;35050;51.316;5.994;2023-10-09T03:53:49;15.90;99.90
49224;DHT22;35050;51.316;5.994;2023-10-09T03:56:15;15.90;99.90
49224;DHT22;35050;51.316;5.994;2023-10-09T03:58:43;15.90;99.90
49224;DHT22;35050;51.316;5.994;2023-10-09T04:01:17;15.90;99.90
49224;DHT22;35050;51.316;5.994;2023-10-09T04:03:58;15.80;99.90
49224;DHT22;35050;51.316;5.994;2023-10-09T04:06:28;15.80;99.90
49224;DHT22;35050;51.316;5.994;2023-10-09T04:09:06;15.80;99.90
49224;DHT22;35050;51.316;5.994;2023-10-09T04:11:47;15.90;99.90
49224;DHT22;35050;51.316;5.994;2023-10-09T04:14:13;15.80;99.90
49224;DHT22;35050;51.316;5.994;2023-10-09T04:16:58;15.80;99.90
49224;DHT22;35050;51.316;5.994;2023-10-09T04:19:52;15.90;99.90
49224;DHT22;35050;51.316;5.994;2023-10-09T04:22:37;15.90;99.90
49224;DHT22;35050;51.316;5.994;2023-10-09T04:25:26;15.80;99.90
49224;DHT22;35050;51.316;5.994;2023-10-09T04:27:55;15.80;99.90
49224;DHT22;35050;51.316;5.994;2023-10-09T04:30:40;15.80;99.90
49224;DHT22;35050;51.316;5.994;2023-10-09T04:33:14;15.80;99.90
49224;DHT22;35050;51.316;5.994;2023-10-09T04:36:03;15.80;99.90
49224;DHT22;35050;51.316;5.994;2023-10-09T04:39:01;15.80;99.90
49224;DHT22;35050;51.316;5.994;2023-10-09T04:41:27;15.90;99.90
49224;DHT22;35050;51.316;5.994;2023-10-09T04:44:00;15.90;99.90
49224;DHT22;35050;51.316;5.994;2023-10-09T04:46:45;15.90;99.90
49224;DHT22;35050;51.316;5.994;2023-10-09T04:49:31;15.90;99.90
49224;DHT22;35050;51.316;5.994;2023-10-09T04:52:11;15.90;99.90
49224;DHT22;35050;51.316;5.994;2023-10-09T04:54:57;15.90;99.90
49224;DHT22;35050;51.316;5.994;2023-10-09T04:57:44;15.80;99.90
49224;DHT22;35050;51.316;5.994;2023-10-09T05:02:54;15.80;99.90
49224;DHT22;35050;51.316;5.994;2023-10-09T05:05:25;15.80;99.90
49224;DHT22;35050;51.316;5.994;2023-10-09T05:08:09;15.80;99.90
49224;DHT22;35050;51.316;5.994;2023-10-09T05:10:48;15.90;99.90
49224;DHT22;35050;51.316;5.994;2023-10-09T05:16:08;15.80;99.90
49224;DHT22;35050;51.316;5.994;2023-10-09T05:18:41;15.80;99.90
49224;DHT22;35050;51.316;5.994;2023-10-09T05:21:07;15.80;99.90
49224;DHT22;35050;51.316;5.994;2023-10-09T05:23:40;15.80;99.90
49224;DHT22;35050;51.316;5.994;2023-10-09T05:26:34;15.80;99.90
49224;DHT22;35050;51.316;5.994;2023-10-09T05:29:18;15.80;99.90
49224;DHT22;35050;51.316;5.994;2023-10-09T05:37:31;16.00;99.90
49224;DHT22;35050;51.316;5.994;2023-10-09T05:40:02;16.00;99.90
49224;DHT22;35050;51.316;5.994;2023-10-09T05:42:31;16.00;99.90
49224;DHT22;35050;51.316;5.994;2023-10-09T05:45:04;15.90;99.90
49224;DHT22;35050;51.316;5.994;2023-10-09T05:47:50;15.90;99.90
49224;DHT22;35050;51.316;5.994;2023-10-09T05:50:26;16.00;99.90
49224;DHT22;35050;51.316;5.994;2023-10-09T05:52:56;15.90;99.90
49224;DHT22;35050;51.316;5.994;2023-10-09T05:55:23;16.00;99.90
49224;DHT22;35050;51.316;5.994;2023-10-09T05:58:08;15.90;99.90
49224;DHT22;35050;51.316;5.994;2023-10-09T06:00:52;15.90;99.90
49224;DHT22;35050;51.316;5.994;2023-10-09T06:03:36;16.00;99.90
49224;DHT22;35050;51.316;5.994;2023-10-09T06:06:22;15.90;99.90
49224;DHT22;35050;51.316;5.994;2023-10-09T06:09:10;16.00;99.90
49224;DHT22;35050;51.316;5.994;2023-10-09T06:11:54;15.90;99.90
49224;DHT22;35050;51.316;5.994;2023-10-09T06:14:21;15.90;99.90
49224;DHT22;35050;51.316;5.994;2023-10-09T06:16:57;15.90;99.90
49224;DHT22;35050;51.316;5.994;2023-10-09T06:19:27;16.10;99.90
49224;DHT22;35050;51.316;5.994;2023-10-09T06:21:58;16.00;99.90
49224;DHT22;35050;51.316;5.994;2023-10-09T06:24:24;16.00;99.90
49224;DHT22;35050;51.316;5.994;2023-10-09T06:26:54;16.00;99.90
49224;DHT22;35050;51.316;5.994;2023-10-09T06:29:29;16.10;99.90
49224;DHT22;35050;51.316;5.994;2023-10-09T06:32:02;16.10;99.90
49224;DHT22;35050;51.316;5.994;2023-10-09T06:34:51;16.10;99.90
49224;DHT22;35050;51.316;5.994;2023-10-09T06:37:20;16.10;99.90
49224;DHT22;35050;51.316;5.994;2023-10-09T06:39:53;16.20;99.90
49224;DHT22;35050;51.316;5.994;2023-10-09T06:42:23;16.20;99.90
49224;DHT22;35050;51.316;5.994;2023-10-09T06:45:12;16.20;99.90
49224;DHT22;35050;51.316;5.994;2023-10-09T06:47:48;16.20;99.90
49224;DHT22;35050;51.316;5.994;2023-10-09T06:50:34;16.20;99.90
49224;DHT22;35050;51.316;5.994;2023-10-09T06:53:18;16.20;99.90
49224;DHT22;35050;51.316;5.994;2023-10-09T06:55:45;16.20;99.90
49224;DHT22;35050;51.316;5.994;2023-10-09T06:58:23;16.20;99.90
49224;DHT22;35050;51.316;5.994;2023-10-09T07:00:52;16.20;99.90
49224;DHT22;35050;51.316;5.994;2023-10-09T07:03:27;16.30;99.90
49224;DHT22;35050;51.316;5.994;2023-10-09T07:06:05;16.30;99.90
49224;DHT22;35050;51.316;5.994;2023-10-09T07:08:35;16.40;99.90
49224;DHT22;35050;51.316;5.994;2023-10-09T07:11:10;16.30;99.90
49224;DHT22;35050;51.316;5.994;2023-10-09T07:17:09;16.40;99.90
49224;DHT22;35050;51.316;5.994;2023-10-09T07:19:42;16.50;99.90
49224;DHT22;35050;51.316;5.994;2023-10-09T07:22:11;16.40;99.90
49224;DHT22;35050;51.316;5.994;2023-10-09T07:24:54;16.30;99.90
49224;DHT22;35050;51.316;5.994;2023-10-09T07:30:08;16.40;99.90
49224;DHT22;35050;51.316;5.994;2023-10-09T07:33:07;16.30;99.90
49224;DHT22;35050;51.316;5.994;2023-10-09T07:35:38;16.50;99.90
49224;DHT22;35050;51.316;5.994;2023-10-09T07:38:11;16.40;99.90
49224;DHT22;35050;51.316;5.994;2023-10-09T07:40:40;16.40;99.90
49224;DHT22;35050;51.316;5.994;2023-10-09T07:43:28;16.50;99.90
49224;DHT22;35050;51.316;5.994;2023-10-09T07:46:19;16.50;99.90
49224;DHT22;35050;51.316;5.994;2023-10-09T07:49:17;16.60;99.90
49224;DHT22;35050;51.316;5.994;2023-10-09T07:51:50;16.60;99.90
49224;DHT22;35050;51.316;5.994;2023-10-09T07:54:20;16.70;99.90
49224;DHT22;35050;51.316;5.994;2023-10-09T07:56:59;16.70;99.90
49224;DHT22;35050;51.316;5.994;2023-10-09T07:59:35;16.70;99.90
49224;DHT22;35050;51.316;5.994;2023-10-09T08:02:06;16.70;99.90
49224;DHT22;35050;51.316;5.994;2023-10-09T08:04:39;16.70;99.90
49224;DHT22;35050;51.316;5.994;2023-10-09T08:07:14;16.80;99.90
49224;DHT22;35050;51.316;5.994;2023-10-09T08:09:54;16.80;99.90
49224;DHT22;35050;51.316;5.994;2023-10-09T08:12:38;16.80;99.90
49224;DHT22;35050;51.316;5.994;2023-10-09T08:15:10;16.70;99.90
49224;DHT22;35050;51.316;5.994;2023-10-09T08:17:55;16.70;99.90
49224;DHT22;35050;51.316;5.994;2023-10-09T08:20:39;16.70;99.90
49224;DHT22;35050;51.316;5.994;2023-10-09T08:23:23;16.80;99.90
49224;DHT22;35050;51.316;5.994;2023-10-09T08:26:05;16.80;99.90
49224;DHT22;35050;51.316;5.994;2023-10-09T08:28:43;16.90;99.90
49224;DHT22;35050;51.316;5.994;2023-10-09T08:31:14;16.80;99.90
49224;DHT22;35050;51.316;5.994;2023-10-09T08:34:14;16.90;99.90
49224;DHT22;35050;51.316;5.994;2023-10-09T08:36:52;16.90;99.90
49224;DHT22;35050;51.316;5.994;2023-10-09T08:39:22;16.80;99.90
49224;DHT22;35050;51.316;5.994;2023-10-09T08:41:54;16.80;99.90
49224;DHT22;35050;51.316;5.994;2023-10-09T08:44:24;16.90;99.90
49224;DHT22;35050;51.316;5.994;2023-10-09T08:46:55;16.90;99.90
49224;DHT22;35050;51.316;5.994;2023-10-09T08:49:26;16.90;99.90
49224;DHT22;35050;51.316;5.994;2023-10-09T08:51:51;17.00;99.90
49224;DHT22;35050;51.316;5.994;2023-10-09T08:54:20;16.90;99.90
49224;DHT22;35050;51.316;5.994;2023-10-09T08:56:46;17.00;99.90
49224;DHT22;35050;51.316;5.994;2023-10-09T08:59:18;17.00;99.90
49224;DHT22;35050;51.316;5.994;2023-10-09T09:01:49;17.10;99.90
49224;DHT22;35050;51.316;5.994;2023-10-09T09:04:38;17.20;99.90
49224;DHT22;35050;51.316;5.994;2023-10-09T09:07:05;17.30;99.90
49224;DHT22;35050;51.316;5.994;2023-10-09T09:09:32;17.40;99.90
49224;DHT22;35050;51.316;5.994;2023-10-09T09:11:59;17.40;99.90
49224;DHT22;35050;51.316;5.994;2023-10-09T09:14:38;17.50;99.90
49224;DHT22;35050;51.316;5.994;2023-10-09T09:17:06;17.60;99.90
49224;DHT22;35050;51.316;5.994;2023-10-09T09:19:36;17.60;99.90
49224;DHT22;35050;51.316;5.994;2023-10-09T09:22:04;17.60;99.90
49224;DHT22;35050;51.316;5.994;2023-10-09T09:24:40;17.60;99.90
49224;DHT22;35050;51.316;5.994;2023-10-09T09:27:11;17.80;99.90
49224;DHT22;35050;51.316;5.994;2023-10-09T09:29:57;17.80;99.90
49224;DHT22;35050;51.316;5.994;2023-10-09T09:32:30;17.90;99.90
49224;DHT22;35050;51.316;5.994;2023-10-09T09:35:01;18.10;99.90
49224;DHT22;35050;51.316;5.994;2023-10-09T09:37:30;18.10;99.90
49224;DHT22;35050;51.316;5.994;2023-10-09T09:40:16;18.20;99.90
49224;DHT22;35050;51.316;5.994;2023-10-09T09:43:03;18.30;99.90
49224;DHT22;35050;51.316;5.994;2023-10-09T09:45:35;18.40;99.90
49224;DHT22;35050;51.316;5.994;2023-10-09T09:48:05;18.40;99.90
49224;DHT22;35050;51.316;5.994;2023-10-09T09:50:38;18.50;99.90
49224;DHT22;35050;51.316;5.994;2023-10-09T09:53:10;18.50;99.90
49224;DHT22;35050;51.316;5.994;2023-10-09T09:55:38;18.60;99.90
49224;DHT22;35050;51.316;5.994;2023-10-09T09:58:11;18.60;99.90
49224;DHT22;35050;51.316;5.994;2023-10-09T10:00:44;18.60;99.90
49224;DHT22;35050;51.316;5.994;2023-10-09T10:03:18;18.60;99.90
49224;DHT22;35050;51.316;5.994;2023-10-09T10:05:45;18.70;99.90
49224;DHT22;35050;51.316;5.994;2023-10-09T10:08:18;18.60;99.90
49224;DHT22;35050;51.316;5.994;2023-10-09T10:10:46;18.80;99.90
49224;DHT22;35050;51.316;5.994;2023-10-09T10:16:16;18.70;99.90
49224;DHT22;35050;51.316;5.994;2023-10-09T10:19:11;18.80;99.90
49224;DHT22;35050;51.316;5.994;2023-10-09T10:21:36;18.70;99.90
49224;DHT22;35050;51.316;5.994;2023-10-09T10:27:28;18.90;99.90
49224;DHT22;35050;51.316;5.994;2023-10-09T10:35:17;19.00;99.90
49224;DHT22;35050;51.316;5.994;2023-10-09T10:37:46;19.10;99.90
49224;DHT22;35050;51.316;5.994;2023-10-09T10:40:27;19.10;99.90
49224;DHT22;35050;51.316;5.994;2023-10-09T10:43:18;19.20;99.90
49224;DHT22;35050;51.316;5.994;2023-10-09T10:46:07;19.20;99.90
49224;DHT22;35050;51.316;5.994;2023-10-09T10:48:50;19.40;99.90
49224;DHT22;35050;51.316;5.994;2023-10-09T10:51:24;19.30;99.90
49224;DHT22;35050;51.316;5.994;2023-10-09T10:54:01;19.40;99.90
49224;DHT22;35050;51.316;5.994;2023-10-09T10:56:46;19.50;99.90
49224;DHT22;35050;51.316;5.994;2023-10-09T10:59:13;19.60;99.90
49224;DHT22;35050;51.316;5.994;2023-10-09T11:01:39;19.60;99.90
49224;DHT22;35050;51.316;5.994;2023-10-09T11:04:26;19.60;99.90
49224;DHT22;35050;51.316;5.994;2023-10-09T11:06:56;19.70;99.90
49224;DHT22;35050;51.316;5.994;2023-10-09T11:10:01;19.60;99.90
49224;DHT22;35050;51.316;5.994;2023-10-09T11:12:27;19.80;99.90
49224;DHT22;35050;51.316;5.994;2023-10-09T11:15:06;19.80;99.90
49224;DHT22;35050;51.316;5.994;2023-10-09T11:20:31;19.90;99.90
49224;DHT22;35050;51.316;5.994;2023-10-09T11:23:00;19.90;99.90
49224;DHT22;35050;51.316;5.994;2023-10-09T11:25:39;19.90;99.90
49224;DHT22;35050;51.316;5.994;2023-10-09T11:28:24;20.10;99.90
49224;DHT22;35050;51.316;5.994;2023-10-09T11:31:11;20.10;99.90
49224;DHT22;35050;51.316;5.994;2023-10-09T11:33:48;20.20;99.90
49224;DHT22;35050;51.316;5.994;2023-10-09T11:36:17;20.30;99.90
49224;DHT22;35050;51.316;5.994;2023-10-09T11:38:43;20.30;99.90
49224;DHT22;35050;51.316;5.994;2023-10-09T11:41:15;20.30;99.90
49224;DHT22;35050;51.316;5.994;2023-10-09T11:43:52;20.40;99.90
49224;DHT22;35050;51.316;5.994;2023-10-09T11:46:19;20.30;99.90
49224;DHT22;35050;51.316;5.994;2023-10-09T11:49:07;20.40;99.90
49224;DHT22;35050;51.316;5.994;2023-10-09T11:52:07;20.60;99.90
49224;DHT22;35050;51.316;5.994;2023-10-09T11:54:39;20.80;99.90
49224;DHT22;35050;51.316;5.994;2023-10-09T11:57:05;20.80;99.90
49224;DHT22;35050;51.316;5.994;2023-10-09T11:59:32;20.70;99.90
49224;DHT22;35050;51.316;5.994;2023-10-09T12:02:07;20.50;99.90
49224;DHT22;35050;51.316;5.994;2023-10-09T12:04:41;20.70;99.90
49224;DHT22;35050;51.316;5.994;2023-10-09T12:07:10;20.70;99.90
49224;DHT22;35050;51.316;5.994;2023-10-09T12:09:37;20.70;99.90
49224;DHT22;35050;51.316;5.994;2023-10-09T12:12:07;20.90;99.90
49224;DHT22;35050;51.316;5.994;2023-10-09T12:14:34;20.90;99.90
49224;DHT22;35050;51.316;5.994;2023-10-09T12:17:07;20.90;99.90
49224;DHT22;35050;51.316;5.994;2023-10-09T12:19:34;21.00;99.90
49224;DHT22;35050;51.316;5.994;2023-10-09T12:22:01;21.00;99.90
49224;DHT22;35050;51.316;5.994;2023-10-09T12:24:27;21.00;99.90
49224;DHT22;35050;51.316;5.994;2023-10-09T12:26:55;21.00;99.90
49224;DHT22;35050;51.316;5.994;2023-10-09T12:29:20;20.80;99.90
49224;DHT22;35050;51.316;5.994;2023-10-09T12:31:46;20.90;99.90
49224;DHT22;35050;51.316;5.994;2023-10-09T12:34:12;20.80;99.90
49224;DHT22;35050;51.316;5.994;2023-10-09T12:36:47;20.80;99.90
49224;DHT22;35050;51.316;5.994;2023-10-09T12:39:15;20.70;99.90
49224;DHT22;35050;51.316;5.994;2023-10-09T12:41:47;20.80;99.90
49224;DHT22;35050;51.316;5.994;2023-10-09T12:44:13;20.70;99.90
49224;DHT22;35050;51.316;5.994;2023-10-09T12:46:45;20.70;99.90
49224;DHT22;35050;51.316;5.994;2023-10-09T12:49:18;20.70;99.90
49224;DHT22;35050;51.316;5.994;2023-10-09T12:51:44;20.70;99.90
49224;DHT22;35050;51.316;5.994;2023-10-09T12:54:10;20.70;99.90
49224;DHT22;35050;51.316;5.994;2023-10-09T12:56:36;20.80;99.90
49224;DHT22;35050;51.316;5.994;2023-10-09T12:59:05;20.70;99.90
49224;DHT22;35050;51.316;5.994;2023-10-09T13:01:32;20.70;99.90
49224;DHT22;35050;51.316;5.994;2023-10-09T13:03:58;20.70;99.90
49224;DHT22;35050;51.316;5.994;2023-10-09T13:06:27;20.80;99.90
49224;DHT22;35050;51.316;5.994;2023-10-09T13:08:53;20.80;99.90
49224;DHT22;35050;51.316;5.994;2023-10-09T13:11:25;20.80;99.90
49224;DHT22;35050;51.316;5.994;2023-10-09T13:13:51;20.80;99.90
49224;DHT22;35050;51.316;5.994;2023-10-09T13:16:21;20.80;99.90
49224;DHT22;35050;51.316;5.994;2023-10-09T13:18:50;20.90;99.90
49224;DHT22;35050;51.316;5.994;2023-10-09T13:21:28;20.90;99.90
49224;DHT22;35050;51.316;5.994;2023-10-09T13:24:00;20.90;99.90
49224;DHT22;35050;51.316;5.994;2023-10-09T13:26:29;20.80;99.90
49224;DHT22;35050;51.316;5.994;2023-10-09T13:29:02;20.80;99.90
49224;DHT22;35050;51.316;5.994;2023-10-09T13:31:28;20.90;99.90
49224;DHT22;35050;51.316;5.994;2023-10-09T13:33:57;20.90;99.90
49224;DHT22;35050;51.316;5.994;2023-10-09T13:36:25;21.30;99.90
49224;DHT22;35050;51.316;5.994;2023-10-09T13:39:05;21.40;99.90
49224;DHT22;35050;51.316;5.994;2023-10-09T13:41:53;21.60;99.90
49224;DHT22;35050;51.316;5.994;2023-10-09T13:44:33;21.80;99.90
49224;DHT22;35050;51.316;5.994;2023-10-09T13:47:01;21.80;99.90
49224;DHT22;35050;51.316;5.994;2023-10-09T13:49:27;21.70;99.90
49224;DHT22;35050;51.316;5.994;2023-10-09T13:51:56;21.70;99.90
49224;DHT22;35050;51.316;5.994;2023-10-09T13:54:22;21.60;99.90
49224;DHT22;35050;51.316;5.994;2023-10-09T13:57:04;21.50;99.90
49224;DHT22;35050;51.316;5.994;2023-10-09T13:59:30;21.40;99.90
49224;DHT22;35050;51.316;5.994;2023-10-09T14:01:56;21.50;99.90
49224;DHT22;35050;51.316;5.994;2023-10-09T14:04:25;21.60;99.90
49224;DHT22;35050;51.316;5.994;2023-10-09T14:06:53;21.50;99.90
49224;DHT22;35050;51.316;5.994;2023-10-09T14:09:23;21.50;99.90
49224;DHT22;35050;51.316;5.994;2023-10-09T14:12:04;21.50;99.90
49224;DHT22;35050;51.316;5.994;2023-10-09T14:14:39;21.60;99.90
49224;DHT22;35050;51.316;5.994;2023-10-09T14:17:08;21.50;99.90
49224;DHT22;35050;51.316;5.994;2023-10-09T14:19:41;21.70;99.90
49224;DHT22;35050;51.316;5.994;2023-10-09T14:22:12;21.70;99.90
49224;DHT22;35050;51.316;5.994;2023-10-09T14:24:41;21.90;99.90
49224;DHT22;35050;51.316;5.994;2023-10-09T14:27:11;21.80;99.90
49224;DHT22;35050;51.316;5.994;2023-10-09T14:29:46;21.80;99.90
49224;DHT22;35050;51.316;5.994;2023-10-09T14:32:12;21.80;99.90
49224;DHT22;35050;51.316;5.994;2023-10-09T14:34:44;21.70;99.90
49224;DHT22;35050;51.316;5.994;2023-10-09T14:37:20;21.60;99.90
49224;DHT22;35050;51.316;5.994;2023-10-09T14:39:46;21.30;99.90
49224;DHT22;35050;51.316;5.994;2023-10-09T14:42:20;21.40;99.90
49224;DHT22;35050;51.316;5.994;2023-10-09T14:44:46;21.40;99.90
49224;DHT22;35050;51.316;5.994;2023-10-09T14:47:11;21.50;99.90
49224;DHT22;35050;51.316;5.994;2023-10-09T14:49:40;21.50;99.90
49224;DHT22;35050;51.316;5.994;2023-10-09T14:52:13;21.50;99.90
49224;DHT22;35050;51.316;5.994;2023-10-09T14:54:42;21.40;99.90
49224;DHT22;35050;51.316;5.994;2023-10-09T14:57:10;21.40;99.90
49224;DHT22;35050;51.316;5.994;2023-10-09T14:59:37;21.40;99.90
49224;DHT22;35050;51.316;5.994;2023-10-09T15:02:03;21.30;99.90
49224;DHT22;35050;51.316;5.994;2023-10-09T15:04:31;21.40;99.90
49224;DHT22;35050;51.316;5.994;2023-10-09T15:06:57;21.40;99.90
49224;DHT22;35050;51.316;5.994;2023-10-09T15:09:23;21.30;99.90
49224;DHT22;35050;51.316;5.994;2023-10-09T15:11:54;21.20;99.90
49224;DHT22;35050;51.316;5.994;2023-10-09T15:14:20;21.20;99.90
49224;DHT22;35050;51.316;5.994;2023-10-09T15:16:47;21.20;99.90
49224;DHT22;35050;51.316;5.994;2023-10-09T15:19:13;21.20;99.90
49224;DHT22;35050;51.316;5.994;2023-10-09T15:21:39;21.20;99.90
49224;DHT22;35050;51.316;5.994;2023-10-09T15:24:13;21.10;99.90
49224;DHT22;35050;51.316;5.994;2023-10-09T15:26:50;21.00;99.90
49224;DHT22;35050;51.316;5.994;2023-10-09T15:29:19;21.00;99.90
49224;DHT22;35050;51.316;5.994;2023-10-09T15:31:49;20.90;99.90
49224;DHT22;35050;51.316;5.994;2023-10-09T15:34:16;20.90;99.90
49224;DHT22;35050;51.316;5.994;2023-10-09T15:36:44;21.00;99.90
49224;DHT22;35050;51.316;5.994;2023-10-09T15:39:15;20.90;99.90
49224;DHT22;35050;51.316;5.994;2023-10-09T15:41:45;20.90;99.90
49224;DHT22;35050;51.316;5.994;2023-10-09T15:44:11;20.90;99.90
49224;DHT22;35050;51.316;5.994;2023-10-09T15:46:39;20.90;99.90
49224;DHT22;35050;51.316;5.994;2023-10-09T15:49:05;20.70;99.90
49224;DHT22;35050;51.316;5.994;2023-10-09T15:51:34;20.70;99.90
49224;DHT22;35050;51.316;5.994;2023-10-09T15:54:01;20.70;99.90
49224;DHT22;35050;51.316;5.994;2023-10-09T15:56:27;20.70;99.90
49224;DHT22;35050;51.316;5.994;2023-10-09T15:58:53;20.80;99.90
49224;DHT22;35050;51.316;5.994;2023-10-09T16:01:20;20.80;99.90
49224;DHT22;35050;51.316;5.994;2023-10-09T16:03:46;20.70;99.90
49224;DHT22;35050;51.316;5.994;2023-10-09T16:06:14;20.70;99.90
49224;DHT22;35050;51.316;5.994;2023-10-09T16:08:45;20.60;99.90
49224;DHT22;35050;51.316;5.994;2023-10-09T16:11:21;20.60;99.90
49224;DHT22;35050;51.316;5.994;2023-10-09T16:13:50;20.60;99.90
49224;DHT22;35050;51.316;5.994;2023-10-09T16:16:29;20.60;99.90
49224;DHT22;35050;51.316;5.994;2023-10-09T16:18:56;20.50;99.90
49224;DHT22;35050;51.316;5.994;2023-10-09T16:21:26;20.50;99.90
49224;DHT22;35050;51.316;5.994;2023-10-09T16:23:52;20.50;99.90
49224;DHT22;35050;51.316;5.994;2023-10-09T16:26:19;20.40;99.90
49224;DHT22;35050;51.316;5.994;2023-10-09T16:28:50;20.30;99.90
49224;DHT22;35050;51.316;5.994;2023-10-09T16:31:17;20.30;99.90
49224;DHT22;35050;51.316;5.994;2023-10-09T16:33:47;20.30;99.90
49224;DHT22;35050;51.316;5.994;2023-10-09T16:36:16;20.20;99.90
49224;DHT22;35050;51.316;5.994;2023-10-09T16:38:42;20.20;99.90
49224;DHT22;35050;51.316;5.994;2023-10-09T16:41:09;20.10;99.90
49224;DHT22;35050;51.316;5.994;2023-10-09T16:43:38;20.10;99.90